createdAt,value
2022-09-14T00:01:25.640Z,17.10
2022-09-14T00:04:00.936Z,17.10
2022-09-14T00:06:29.053Z,17.10
2022-09-14T00:08:58.096Z,17.10
2022-09-14T00:11:26.307Z,17.10
2022-09-14T00:13:53.450Z,17.10
2022-09-14T00:16:23.175Z,17.00
2022-09-14T00:18:54.982Z,17.10
2022-09-14T00:21:23.055Z,17.00
2022-09-14T00:23:49.849Z,17.00
2022-09-14T00:26:20.847Z,17.00
2022-09-14T00:28:50.716Z,17.00
2022-09-14T00:31:18.099Z,17.00
2022-09-14T00:33:49.644Z,17.00
2022-09-14T00:36:19.629Z,17.00
2022-09-14T00:38:48.064Z,17.00
2022-09-14T00:41:18.902Z,17.00
2022-09-14T00:43:51.731Z,17.10
2022-09-14T00:46:18.560Z,17.00
2022-09-14T00:48:45.326Z,17.00
2022-09-14T00:51:12.739Z,17.00
2022-09-14T00:53:39.992Z,17.00
2022-09-14T00:56:07.268Z,16.80
2022-09-14T00:58:33.985Z,16.70
2022-09-14T01:01:02.437Z,16.70
2022-09-14T01:03:29.162Z,16.70
2022-09-14T01:06:13.790Z,16.70
2022-09-14T01:08:48.101Z,16.80
2022-09-14T01:11:53.899Z,16.80
2022-09-14T01:14:59.238Z,16.80
2022-09-14T01:17:44.058Z,16.80
2022-09-14T01:20:22.961Z,16.80
2022-09-14T01:22:58.997Z,16.80
2022-09-14T01:25:59.543Z,16.80
2022-09-14T01:29:05.111Z,16.90
2022-09-14T01:31:44.372Z,16.90
2022-09-14T01:34:36.740Z,16.90
2022-09-14T01:37:14.810Z,16.90
2022-09-14T01:39:48.799Z,16.90
2022-09-14T01:42:20.923Z,16.90
2022-09-14T01:44:52.711Z,16.80
2022-09-14T01:47:27.458Z,16.80
2022-09-14T01:50:01.246Z,16.90
2022-09-14T01:52:39.829Z,16.80
2022-09-14T01:55:14.020Z,16.80
2022-09-14T01:57:50.070Z,16.80
2022-09-14T02:00:19.100Z,16.80
2022-09-14T02:03:11.097Z,16.90
2022-09-14T02:06:07.076Z,16.90
2022-09-14T02:08:34.271Z,16.90
2022-09-14T02:11:01.889Z,16.90
2022-09-14T02:13:29.234Z,16.90
2022-09-14T02:15:56.188Z,16.90
2022-09-14T02:18:23.012Z,16.90
2022-09-14T02:20:57.298Z,16.90
2022-09-14T02:23:24.144Z,16.90
2022-09-14T02:25:51.409Z,16.90
2022-09-14T02:28:21.474Z,16.90
2022-09-14T02:31:36.250Z,16.90
2022-09-14T02:34:13.402Z,16.90
2022-09-14T02:37:00.755Z,16.80
2022-09-14T02:39:38.856Z,16.80
2022-09-14T02:42:31.205Z,16.80
2022-09-14T02:45:07.850Z,16.70
2022-09-14T02:47:49.166Z,16.70
2022-09-14T02:50:49.588Z,16.70
2022-09-14T02:53:44.337Z,16.70
2022-09-14T02:56:12.408Z,16.70
2022-09-14T02:58:41.818Z,16.70
2022-09-14T03:01:11.156Z,16.70
2022-09-14T03:03:37.859Z,16.70
2022-09-14T03:06:05.228Z,16.70
2022-09-14T03:08:32.272Z,16.70
2022-09-14T03:10:59.274Z,17.00
2022-09-14T03:13:25.957Z,17.40
2022-09-14T03:15:53.516Z,17.80
2022-09-14T03:18:20.526Z,18.00
2022-09-14T03:20:47.289Z,18.10
2022-09-14T03:23:14.282Z,18.30
2022-09-14T03:25:44.767Z,18.30
2022-09-14T03:28:12.794Z,18.40
2022-09-14T03:30:39.682Z,18.50
2022-09-14T03:33:06.475Z,18.50
2022-09-14T03:35:33.850Z,18.50
2022-09-14T03:38:03.045Z,18.60
2022-09-14T03:40:29.991Z,18.60
2022-09-14T03:42:56.655Z,18.70
2022-09-14T03:45:23.399Z,18.70
2022-09-14T03:47:50.420Z,18.70
2022-09-14T03:50:18.545Z,18.70
2022-09-14T03:52:45.404Z,18.80
2022-09-14T03:55:12.180Z,18.80
2022-09-14T03:57:38.902Z,18.90
2022-09-14T04:00:07.706Z,19.00
2022-09-14T04:02:41.108Z,19.00
2022-09-14T04:05:08.388Z,19.00
2022-09-14T04:07:35.943Z,19.00
2022-09-14T04:10:03.252Z,19.00
2022-09-14T04:12:34.856Z,19.10
2022-09-14T04:15:02.267Z,19.20
2022-09-14T04:17:29.661Z,19.10
2022-09-14T04:19:58.379Z,19.10
2022-09-14T04:22:26.317Z,18.90
2022-09-14T04:24:53.731Z,19.00
2022-09-14T04:27:20.385Z,18.90
2022-09-14T04:29:50.280Z,19.00
2022-09-14T04:32:17.314Z,19.00
2022-09-14T04:34:43.966Z,19.00
2022-09-14T04:37:10.660Z,19.00
2022-09-14T04:39:37.311Z,19.00
2022-09-14T04:42:04.383Z,19.00
2022-09-14T04:44:31.066Z,19.00
2022-09-14T04:46:57.775Z,19.00
2022-09-14T04:49:25.546Z,19.00
2022-09-14T04:51:52.513Z,18.90
2022-09-14T04:54:19.272Z,18.90
2022-09-14T04:56:46.158Z,18.80
2022-09-14T04:59:12.963Z,18.80
2022-09-14T05:01:41.951Z,18.90
2022-09-14T05:04:09.356Z,18.90
2022-09-14T05:06:38.339Z,18.90
2022-09-14T05:09:09.908Z,18.90
2022-09-14T05:11:37.545Z,18.90
2022-09-14T05:14:04.801Z,18.90
2022-09-14T05:16:36.428Z,18.90
2022-09-14T05:19:06.021Z,18.90
2022-09-14T05:21:34.788Z,18.90
2022-09-14T05:24:08.096Z,18.80
2022-09-14T05:26:34.854Z,18.80
2022-09-14T05:29:02.526Z,18.80
2022-09-14T05:31:31.206Z,18.80
2022-09-14T05:33:58.705Z,18.80
2022-09-14T05:36:25.955Z,18.80
2022-09-14T05:38:53.080Z,18.80
2022-09-14T05:41:19.762Z,18.80
2022-09-14T05:43:46.474Z,18.80
2022-09-14T05:46:16.325Z,18.80
2022-09-14T05:48:43.698Z,18.80
2022-09-14T05:51:19.065Z,18.70
2022-09-14T05:53:53.970Z,18.70
2022-09-14T05:56:22.350Z,18.60
2022-09-14T05:58:49.749Z,18.70
2022-09-14T06:01:21.711Z,18.60
2022-09-14T06:03:49.212Z,18.70
2022-09-14T06:06:19.399Z,18.60
2022-09-14T06:08:47.968Z,18.60
2022-09-14T06:11:17.486Z,18.60
2022-09-14T06:13:46.695Z,18.60
2022-09-14T06:16:15.453Z,18.60
2022-09-14T06:18:43.371Z,18.60
2022-09-14T06:21:15.031Z,18.60
2022-09-14T06:23:42.024Z,18.50
2022-09-14T06:26:08.962Z,18.50
2022-09-14T06:28:35.963Z,18.60
2022-09-14T06:31:04.489Z,18.60
2022-09-14T06:33:31.960Z,18.60
2022-09-14T06:36:04.563Z,18.70
2022-09-14T06:38:31.224Z,18.60
2022-09-14T06:40:59.771Z,18.70
2022-09-14T06:43:28.360Z,18.70
2022-09-14T06:46:02.309Z,18.90
2022-09-14T06:48:30.991Z,18.90
2022-09-14T06:50:58.231Z,19.00
2022-09-14T06:53:25.148Z,19.00
2022-09-14T06:55:52.328Z,19.10
2022-09-14T06:58:19.032Z,19.10
2022-09-14T07:00:45.683Z,19.20
2022-09-14T07:03:12.432Z,19.30
2022-09-14T07:05:39.181Z,19.40
2022-09-14T07:08:10.179Z,19.50
2022-09-14T07:10:38.711Z,19.50
2022-09-14T07:13:05.415Z,19.50
2022-09-14T07:15:33.214Z,19.60
2022-09-14T07:17:59.849Z,19.70
2022-09-14T07:20:26.516Z,19.80
2022-09-14T07:22:53.176Z,19.90
2022-09-14T07:25:19.844Z,20.10
2022-09-14T07:27:46.570Z,20.10
2022-09-14T07:30:13.285Z,20.20
2022-09-14T07:32:40.338Z,20.20
2022-09-14T07:35:08.148Z,20.30
2022-09-14T07:37:34.803Z,20.40
2022-09-14T07:40:01.711Z,20.40
2022-09-14T07:42:28.393Z,20.40
2022-09-14T07:44:55.084Z,20.50
2022-09-14T07:47:21.745Z,20.60
2022-09-14T07:49:48.416Z,20.60
2022-09-14T07:52:15.068Z,20.70
2022-09-14T07:54:41.848Z,20.90
2022-09-14T07:57:08.672Z,21.10
2022-09-14T07:59:36.899Z,21.10
2022-09-14T08:02:08.786Z,21.20
2022-09-14T08:04:36.274Z,21.20
2022-09-14T08:07:03.692Z,21.30
2022-09-14T08:09:30.404Z,21.30
2022-09-14T08:11:57.810Z,21.40
2022-09-14T08:14:24.884Z,21.50
2022-09-14T08:16:51.987Z,21.60
2022-09-14T08:19:20.773Z,21.60
2022-09-14T08:21:48.190Z,21.70
2022-09-14T08:24:20.070Z,21.80
2022-09-14T08:26:47.860Z,21.90
2022-09-14T08:29:16.304Z,22.00
2022-09-14T08:31:45.304Z,22.00
2022-09-14T08:34:12.113Z,22.00
2022-09-14T08:36:40.617Z,22.10
2022-09-14T08:39:10.481Z,22.20
2022-09-14T08:41:51.580Z,22.30
2022-09-14T08:44:24.239Z,22.40
2022-09-14T08:47:19.169Z,22.50
2022-09-14T08:50:00.861Z,22.50
2022-09-14T08:52:38.384Z,22.60
2022-09-14T08:55:23.718Z,22.80
2022-09-14T08:58:08.099Z,22.90
2022-09-14T09:00:42.613Z,22.90
2022-09-14T09:03:24.461Z,23.00
2022-09-14T09:06:17.682Z,23.00
2022-09-14T09:09:02.658Z,23.00
2022-09-14T09:11:37.658Z,22.90
2022-09-14T09:14:19.721Z,22.70
2022-09-14T09:16:50.458Z,22.50
2022-09-14T09:19:32.598Z,22.40
2022-09-14T09:22:03.140Z,22.30
2022-09-14T09:24:50.459Z,22.30
2022-09-14T09:27:17.180Z,22.20
2022-09-14T09:29:44.477Z,22.20
2022-09-14T09:32:23.250Z,22.20
2022-09-14T09:34:50.305Z,22.20
2022-09-14T09:37:39.564Z,22.20
2022-09-14T09:40:18.475Z,22.30
2022-09-14T09:43:12.030Z,22.40
2022-09-14T09:45:57.680Z,22.40
2022-09-14T09:48:28.176Z,22.40
2022-09-14T09:51:24.598Z,22.50
2022-09-14T09:54:11.962Z,22.70
2022-09-14T09:56:54.650Z,22.90
2022-09-14T09:59:50.057Z,23.00
2022-09-14T10:02:25.678Z,23.10
2022-09-14T10:05:09.642Z,23.10
2022-09-14T10:07:56.215Z,22.90
2022-09-14T10:10:39.488Z,22.90
2022-09-14T10:13:22.876Z,23.00
2022-09-14T10:15:50.076Z,22.80
2022-09-14T10:18:18.845Z,22.70
2022-09-14T10:20:54.911Z,22.70
2022-09-14T10:23:23.169Z,22.70
2022-09-14T10:25:54.173Z,22.60
2022-09-14T10:28:27.984Z,22.50
2022-09-14T10:31:02.664Z,22.50
2022-09-14T10:33:30.188Z,22.30
2022-09-14T10:35:56.829Z,22.00
2022-09-14T10:38:35.290Z,21.90
2022-09-14T10:41:15.855Z,21.80
2022-09-14T10:43:48.815Z,21.80
2022-09-14T10:46:21.516Z,21.90
2022-09-14T10:49:21.238Z,21.90
2022-09-14T10:52:11.498Z,22.00
2022-09-14T10:54:56.786Z,22.10
2022-09-14T10:57:50.020Z,22.00
2022-09-14T11:00:19.869Z,22.00
2022-09-14T11:03:02.531Z,22.10
2022-09-14T11:05:39.528Z,22.20
2022-09-14T11:08:24.432Z,22.20
2022-09-14T11:11:19.420Z,22.30
2022-09-14T11:14:20.706Z,22.50
2022-09-14T11:17:05.084Z,22.60
2022-09-14T11:19:53.663Z,22.70
2022-09-14T11:22:52.999Z,22.50
2022-09-14T11:25:29.661Z,22.30
2022-09-14T11:28:17.912Z,22.40
2022-09-14T11:31:00.626Z,22.30
2022-09-14T11:33:46.667Z,22.40
2022-09-14T11:36:28.283Z,22.20
2022-09-14T11:39:36.573Z,22.10
2022-09-14T11:42:09.215Z,22.30
2022-09-14T11:44:39.281Z,22.30
2022-09-14T11:47:07.706Z,22.20
2022-09-14T11:49:39.775Z,22.10
2022-09-14T11:52:25.234Z,22.00
2022-09-14T11:54:53.047Z,21.90
2022-09-14T11:57:31.920Z,21.80
2022-09-14T12:00:02.514Z,21.90
2022-09-14T12:02:37.692Z,22.00
2022-09-14T12:05:07.199Z,21.90
2022-09-14T12:07:42.179Z,21.80
2022-09-14T12:10:15.158Z,21.80
2022-09-14T12:12:53.714Z,21.70
2022-09-14T12:15:26.289Z,21.70
2022-09-14T12:18:05.504Z,21.60
2022-09-14T12:20:42.992Z,21.50
2022-09-14T12:23:38.739Z,21.40
2022-09-14T12:26:24.171Z,21.30
2022-09-14T12:28:53.629Z,21.20
2022-09-14T12:31:55.340Z,21.20
2022-09-14T12:34:31.975Z,21.20
2022-09-14T12:37:30.131Z,21.20
2022-09-14T12:40:21.474Z,21.20
2022-09-14T12:42:48.370Z,21.20
2022-09-14T12:46:00.325Z,21.20
2022-09-14T12:48:46.454Z,21.20
2022-09-14T12:51:39.452Z,21.30
2022-09-14T12:54:09.137Z,21.40
2022-09-14T12:56:53.210Z,21.50
2022-09-14T12:59:38.635Z,21.50
2022-09-14T13:02:23.702Z,21.60
2022-09-14T13:04:56.350Z,21.70
2022-09-14T13:07:26.032Z,21.80
2022-09-14T13:09:55.324Z,21.70
2022-09-14T13:12:32.087Z,21.60
2022-09-14T13:15:03.810Z,21.50
2022-09-14T13:17:30.499Z,21.30
2022-09-14T13:20:00.150Z,21.10
2022-09-14T13:22:34.520Z,21.00
2022-09-14T13:25:01.500Z,20.90
2022-09-14T13:27:34.853Z,20.90
2022-09-14T13:30:20.919Z,20.80
2022-09-14T13:32:50.777Z,20.80
2022-09-14T13:35:30.254Z,20.80
2022-09-14T13:37:59.597Z,20.80
2022-09-14T13:40:29.902Z,20.80
2022-09-14T13:42:59.218Z,20.80
2022-09-14T13:45:26.421Z,20.80
2022-09-14T13:47:54.282Z,20.90
2022-09-14T13:50:25.280Z,20.80
2022-09-14T13:53:08.320Z,20.80
2022-09-14T13:55:34.961Z,20.80
2022-09-14T13:58:20.386Z,20.80
2022-09-14T14:00:54.231Z,20.80
2022-09-14T14:03:48.512Z,20.70
2022-09-14T14:06:21.062Z,20.70
2022-09-14T14:08:58.399Z,20.70
2022-09-14T14:11:28.463Z,20.60
2022-09-14T14:13:55.144Z,20.50
2022-09-14T14:16:24.945Z,20.40
2022-09-14T14:18:54.335Z,20.40
2022-09-14T14:21:24.775Z,20.30
2022-09-14T14:24:11.982Z,20.20
2022-09-14T14:26:46.987Z,20.20
2022-09-14T14:29:16.173Z,20.10
2022-09-14T14:31:43.126Z,20.10
2022-09-14T14:34:28.934Z,20.10
2022-09-14T14:36:56.135Z,20.10
2022-09-14T14:39:25.247Z,20.00
2022-09-14T14:41:52.441Z,19.90
2022-09-14T14:44:28.178Z,19.70
2022-09-14T14:46:56.395Z,19.60
2022-09-14T14:49:23.773Z,19.50
2022-09-14T14:51:51.013Z,19.20
2022-09-14T14:54:18.532Z,18.90
2022-09-14T14:56:47.158Z,18.80
2022-09-14T14:59:19.914Z,18.80
2022-09-14T15:01:47.355Z,18.80
2022-09-14T15:04:14.666Z,18.80
2022-09-14T15:06:41.715Z,18.80
2022-09-14T15:09:25.224Z,18.90
2022-09-14T15:11:54.408Z,18.90
2022-09-14T15:14:26.942Z,18.90
2022-09-14T15:16:57.820Z,18.90
2022-09-14T15:19:25.688Z,18.90
2022-09-14T15:21:53.169Z,18.90
2022-09-14T15:24:22.444Z,18.90
2022-09-14T15:26:49.097Z,19.00
2022-09-14T15:29:18.218Z,19.00
2022-09-14T15:31:44.919Z,19.00
2022-09-14T15:34:11.894Z,19.00
2022-09-14T15:36:39.988Z,19.00
2022-09-14T15:39:08.415Z,19.00
2022-09-14T15:41:35.103Z,18.90
2022-09-14T15:44:03.687Z,19.00
2022-09-14T15:46:31.298Z,19.10
2022-09-14T15:48:58.920Z,19.50
2022-09-14T15:51:25.605Z,19.60
2022-09-14T15:53:52.908Z,19.80
2022-09-14T15:56:19.975Z,20.10
2022-09-14T15:58:48.256Z,20.00
2022-09-14T16:01:17.270Z,19.70
2022-09-14T16:03:44.299Z,19.60
2022-09-14T16:06:12.541Z,19.40
2022-09-14T16:08:40.210Z,19.30
2022-09-14T16:11:08.481Z,19.40
2022-09-14T16:13:35.677Z,19.30
2022-09-14T16:16:04.152Z,19.40
2022-09-14T16:18:31.394Z,19.40
2022-09-14T16:21:07.926Z,19.40
2022-09-14T16:23:42.590Z,19.40
2022-09-14T16:26:15.841Z,19.40
2022-09-14T16:28:44.094Z,19.30
2022-09-14T16:31:17.514Z,19.40
2022-09-14T16:33:51.102Z,19.40
2022-09-14T16:36:20.911Z,19.50
2022-09-14T16:38:47.616Z,19.50
2022-09-14T16:41:15.080Z,19.50
2022-09-14T16:43:42.069Z,19.50
2022-09-14T16:46:16.607Z,19.50
2022-09-14T16:48:46.136Z,19.50
2022-09-14T16:51:14.420Z,19.60
2022-09-14T16:53:46.464Z,19.50
2022-09-14T16:56:16.538Z,19.40
2022-09-14T16:58:44.470Z,19.50
2022-09-14T17:01:26.763Z,19.50
2022-09-14T17:03:54.894Z,19.40
2022-09-14T17:06:28.461Z,19.40
2022-09-14T17:08:57.730Z,19.40
2022-09-14T17:11:24.509Z,19.30
2022-09-14T17:13:51.518Z,19.20
2022-09-14T17:16:20.936Z,19.10
2022-09-14T17:18:49.696Z,19.10
2022-09-14T17:21:19.573Z,19.00
2022-09-14T17:23:46.916Z,19.00
2022-09-14T17:26:17.622Z,18.90
2022-09-14T17:28:47.135Z,18.90
2022-09-14T17:31:16.401Z,18.80
2022-09-14T17:33:43.158Z,18.70
2022-09-14T17:36:09.906Z,18.70
2022-09-14T17:38:41.166Z,18.70
2022-09-14T17:41:10.972Z,18.60
2022-09-14T17:43:38.763Z,18.60
2022-09-14T17:46:07.918Z,18.50
2022-09-14T17:48:36.569Z,18.50
2022-09-14T17:51:08.413Z,18.50
2022-09-14T17:53:39.576Z,18.40
2022-09-14T17:56:07.919Z,18.40
2022-09-14T17:58:35.871Z,18.40
2022-09-14T18:01:09.229Z,18.30
2022-09-14T18:03:41.332Z,18.40
2022-09-14T18:06:10.245Z,18.30
2022-09-14T18:08:37.908Z,18.30
2022-09-14T18:11:16.639Z,18.30
2022-09-14T18:13:45.122Z,18.20
2022-09-14T18:16:13.448Z,18.20
2022-09-14T18:18:40.506Z,18.10
2022-09-14T18:21:08.117Z,18.10
2022-09-14T18:23:35.582Z,18.00
2022-09-14T18:26:03.853Z,18.00
2022-09-14T18:28:30.893Z,18.00
2022-09-14T18:31:06.483Z,17.90
2022-09-14T18:33:33.619Z,17.80
2022-09-14T18:36:00.476Z,17.60
2022-09-14T18:38:28.760Z,17.50
2022-09-14T18:41:01.906Z,17.40
2022-09-14T18:43:28.586Z,17.30
2022-09-14T18:45:55.453Z,17.40
2022-09-14T18:48:22.242Z,17.40
2022-09-14T18:50:48.923Z,17.40
2022-09-14T18:53:15.694Z,17.40
2022-09-14T18:55:42.350Z,17.40
2022-09-14T18:58:09.443Z,17.30
2022-09-14T19:00:37.319Z,17.30
2022-09-14T19:03:04.265Z,17.10
2022-09-14T19:05:31.809Z,17.10
2022-09-14T19:07:58.606Z,17.00
2022-09-14T19:10:25.783Z,17.00
2022-09-14T19:12:52.546Z,16.90
2022-09-14T19:15:19.294Z,16.80
2022-09-14T19:17:46.069Z,16.80
2022-09-14T19:20:12.804Z,16.80
2022-09-14T19:22:39.473Z,16.80
2022-09-14T19:25:06.669Z,16.80
2022-09-14T19:27:33.325Z,16.80
2022-09-14T19:30:01.083Z,16.80
2022-09-14T19:32:27.948Z,16.80
2022-09-14T19:34:55.065Z,16.90
2022-09-14T19:37:22.320Z,17.00
2022-09-14T19:39:49.241Z,17.00
2022-09-14T19:42:15.945Z,17.00
2022-09-14T19:44:42.742Z,16.90
2022-09-14T19:47:09.412Z,16.80
2022-09-14T19:49:36.081Z,16.80
2022-09-14T19:52:03.208Z,16.80
2022-09-14T19:54:29.980Z,16.70
2022-09-14T19:56:56.701Z,16.60
2022-09-14T19:59:23.931Z,16.60
2022-09-14T20:01:50.999Z,16.60
2022-09-14T20:04:22.322Z,16.50
2022-09-14T20:06:49.036Z,16.60
2022-09-14T20:09:21.274Z,16.60
2022-09-14T20:11:50.500Z,16.60
2022-09-14T20:14:20.240Z,16.60
2022-09-14T20:16:52.885Z,16.60
2022-09-14T20:19:20.455Z,16.60
2022-09-14T20:21:49.002Z,16.70
2022-09-14T20:24:25.381Z,16.70
2022-09-14T20:26:59.312Z,16.70
2022-09-14T20:29:30.066Z,16.70
2022-09-14T20:31:58.070Z,16.70
2022-09-14T20:34:24.885Z,16.70
2022-09-14T20:36:52.696Z,16.70
2022-09-14T20:39:21.461Z,16.70
2022-09-14T20:41:48.706Z,16.70
2022-09-14T20:44:15.896Z,16.60
2022-09-14T20:46:44.681Z,16.50
2022-09-14T20:49:13.729Z,16.50
2022-09-14T20:51:41.192Z,16.50
2022-09-14T20:54:10.936Z,16.50
2022-09-14T20:56:39.531Z,16.60
2022-09-14T20:59:09.633Z,16.60
2022-09-14T21:01:38.423Z,16.60
2022-09-14T21:04:09.050Z,16.60
2022-09-14T21:06:39.161Z,16.60
2022-09-14T21:09:06.758Z,16.60
2022-09-14T21:11:34.254Z,16.70
2022-09-14T21:14:01.276Z,16.70
2022-09-14T21:16:31.291Z,16.70
2022-09-14T21:19:00.790Z,16.70
2022-09-14T21:21:28.300Z,16.60
2022-09-14T21:23:57.085Z,16.60
2022-09-14T21:26:25.530Z,16.50
2022-09-14T21:28:57.054Z,16.50
2022-09-14T21:31:24.966Z,16.50
2022-09-14T21:33:54.547Z,16.50
2022-09-14T21:36:27.014Z,16.40
2022-09-14T21:38:56.504Z,16.30
2022-09-14T21:41:25.672Z,16.30
2022-09-14T21:43:52.869Z,16.20
2022-09-14T21:46:20.362Z,16.20
2022-09-14T21:48:47.714Z,16.10
2022-09-14T21:51:29.748Z,16.10
2022-09-14T21:53:59.194Z,16.10
2022-09-14T21:56:28.718Z,16.10
2022-09-14T21:58:57.872Z,16.10
2022-09-14T22:01:25.598Z,16.00
2022-09-14T22:03:53.580Z,16.10
2022-09-14T22:06:22.973Z,15.90
2022-09-14T22:08:50.566Z,16.00
2022-09-14T22:11:25.746Z,16.00
2022-09-14T22:14:01.043Z,16.00
2022-09-14T22:16:29.761Z,16.00
2022-09-14T22:18:58.329Z,16.00
2022-09-14T22:21:28.857Z,16.00
2022-09-14T22:23:59.100Z,16.00
2022-09-14T22:26:28.222Z,16.10
2022-09-14T22:28:55.589Z,16.10
2022-09-14T22:31:23.440Z,16.10
2022-09-14T22:33:51.181Z,16.10
2022-09-14T22:36:17.942Z,16.10
2022-09-14T22:38:46.416Z,16.10
2022-09-14T22:41:17.521Z,16.00
2022-09-14T22:43:45.368Z,16.00
2022-09-14T22:46:12.836Z,15.90
2022-09-14T22:48:40.012Z,15.90
2022-09-14T22:51:08.625Z,16.00
2022-09-14T22:53:35.672Z,16.00
2022-09-14T22:56:09.487Z,16.00
2022-09-14T22:58:36.336Z,16.00
2022-09-14T23:01:08.452Z,16.00
2022-09-14T23:03:35.570Z,15.90
2022-09-14T23:06:03.149Z,16.00
2022-09-14T23:08:30.398Z,16.00
2022-09-14T23:10:57.271Z,16.00
2022-09-14T23:13:23.991Z,16.00
2022-09-14T23:15:50.667Z,16.00
2022-09-14T23:18:17.312Z,16.00
2022-09-14T23:20:44.892Z,16.00
2022-09-14T23:23:12.739Z,16.10
2022-09-14T23:25:40.736Z,16.20
2022-09-14T23:28:10.099Z,16.20
2022-09-14T23:30:37.116Z,16.20
2022-09-14T23:33:06.853Z,16.20
2022-09-14T23:35:37.039Z,16.20
2022-09-14T23:38:04.549Z,16.30
2022-09-14T23:40:31.302Z,16.20
2022-09-14T23:42:58.049Z,16.30
2022-09-14T23:45:24.743Z,16.30
2022-09-14T23:47:51.423Z,16.30
2022-09-14T23:50:18.892Z,16.20
2022-09-14T23:52:46.257Z,16.30
2022-09-14T23:55:13.485Z,16.30
2022-09-14T23:57:40.204Z,16.30
